createdAt,value
2023-10-12T00:00:00.834Z,86626.81
2023-10-12T00:02:34.226Z,86628.13
2023-10-12T00:05:07.846Z,86631.69
2023-10-12T00:07:34.775Z,86626.31
2023-10-12T00:10:13.322Z,86625.59
2023-10-12T00:12:46.098Z,86624.72
2023-10-12T00:15:23.233Z,86613.66
2023-10-12T00:17:54.155Z,86618.25
2023-10-12T00:20:33.312Z,86616.84
2023-10-12T00:23:00.345Z,86615.63
2023-10-12T00:25:27.082Z,86606.53
2023-10-12T00:27:53.953Z,86605.59
2023-10-12T00:30:20.693Z,86604.34
2023-10-12T00:32:47.449Z,86603.69
2023-10-12T00:35:15.832Z,86609.22
2023-10-12T00:37:42.514Z,86601.25
2023-10-12T00:40:24.851Z,86601.81
2023-10-12T00:42:52.761Z,86601.09
2023-10-12T00:45:30.693Z,86600.97
2023-10-12T00:48:07.948Z,86600.56
2023-10-12T00:50:37.267Z,86600.63
2023-10-12T00:53:16.479Z,86605.72
2023-10-12T00:55:43.246Z,86598.19
2023-10-12T00:58:10.142Z,86598.94
2023-10-12T01:00:37.102Z,86596.91
2023-10-12T01:03:29.284Z,86603.06
2023-10-12T01:06:22.492Z,86606.94
2023-10-12T01:08:49.490Z,86598.19
2023-10-12T01:11:22.566Z,86595.59
2023-10-12T01:14:06.816Z,86591.38
2023-10-12T01:16:51.618Z,86589.91
2023-10-12T01:19:22.796Z,86588.13
2023-10-12T01:21:50.758Z,86582.59
2023-10-12T01:24:17.567Z,86589.84
2023-10-12T01:26:54.665Z,86585.38
2023-10-12T01:29:22.116Z,86579.84
2023-10-12T01:32:06.594Z,86591.00
2023-10-12T01:34:38.363Z,86576.56
2023-10-12T01:37:10.595Z,86579.59
2023-10-12T01:39:40.785Z,86577.66
2023-10-12T01:42:07.931Z,86570.13
2023-10-12T01:44:35.205Z,86575.88
2023-10-12T01:47:01.881Z,86574.47
2023-10-12T01:49:31.785Z,86565.69
2023-10-12T01:51:59.088Z,86564.69
2023-10-12T01:54:26.063Z,86568.22
2023-10-12T01:56:53.416Z,86564.53
2023-10-12T01:59:22.910Z,86564.88
2023-10-12T02:02:09.459Z,86559.41
2023-10-12T02:04:41.756Z,86560.00
2023-10-12T02:07:11.921Z,86561.16
2023-10-12T02:09:38.784Z,86554.41
2023-10-12T02:12:12.374Z,86557.25
2023-10-12T02:14:41.310Z,86561.06
2023-10-12T02:17:10.293Z,86561.03
2023-10-12T02:19:57.165Z,86556.38
2023-10-12T02:22:30.214Z,86562.22
2023-10-12T02:25:15.455Z,86562.31
2023-10-12T02:27:43.400Z,86557.91
2023-10-12T02:30:14.907Z,86554.94
2023-10-12T02:32:50.330Z,86550.00
2023-10-12T02:35:20.823Z,86553.31
2023-10-12T02:37:47.716Z,86548.66
2023-10-12T02:40:17.450Z,86551.00
2023-10-12T02:42:46.443Z,86554.78
2023-10-12T02:45:14.427Z,86548.09
2023-10-12T02:47:47.074Z,86542.78
2023-10-12T02:50:13.985Z,86542.94
2023-10-12T02:52:45.107Z,86538.91
2023-10-12T02:55:20.929Z,86535.31
2023-10-12T02:58:06.208Z,86545.84
2023-10-12T03:00:45.018Z,86540.81
2023-10-12T03:03:24.086Z,86546.16
2023-10-12T03:05:53.234Z,86543.47
2023-10-12T03:08:23.565Z,86540.69
2023-10-12T03:11:11.909Z,86542.06
2023-10-12T03:13:39.041Z,86540.00
2023-10-12T03:16:22.674Z,86551.28
2023-10-12T03:19:01.721Z,86544.63
2023-10-12T03:21:29.315Z,86550.63
2023-10-12T03:23:58.941Z,86535.41
2023-10-12T03:26:26.497Z,86545.19
2023-10-12T03:28:55.182Z,86541.69
2023-10-12T03:31:25.571Z,86542.19
2023-10-12T03:33:56.114Z,86549.25
2023-10-12T03:36:34.368Z,86550.22
2023-10-12T03:39:09.785Z,86550.25
2023-10-12T03:41:55.455Z,86551.28
2023-10-12T03:44:43.879Z,86552.03
2023-10-12T03:47:22.792Z,86548.63
2023-10-12T03:49:53.031Z,86549.34
2023-10-12T03:52:28.782Z,86553.13
2023-10-12T03:55:01.410Z,86549.03
2023-10-12T03:57:37.670Z,86556.28
2023-10-12T04:00:07.432Z,86548.00
2023-10-12T04:02:57.140Z,86558.72
2023-10-12T04:05:33.042Z,86556.13
2023-10-12T04:08:03.342Z,86556.53
2023-10-12T04:10:48.089Z,86547.03
2023-10-12T04:13:30.334Z,86552.94
2023-10-12T04:16:06.769Z,86556.31
2023-10-12T04:18:34.362Z,86549.41
2023-10-12T04:21:01.581Z,86548.75
2023-10-12T04:23:33.960Z,86547.78
2023-10-12T04:26:15.970Z,86559.19
2023-10-12T04:28:56.801Z,86559.03
2023-10-12T04:31:33.170Z,86554.09
2023-10-12T04:34:07.889Z,86552.72
2023-10-12T04:36:44.656Z,86549.59
2023-10-12T04:39:11.838Z,86550.97
2023-10-12T04:41:39.632Z,86557.81
2023-10-12T04:44:24.579Z,86558.53
2023-10-12T04:46:52.697Z,86555.47
2023-10-12T04:49:19.388Z,86561.34
2023-10-12T04:51:52.533Z,86561.22
2023-10-12T04:54:24.940Z,86561.59
2023-10-12T04:57:11.954Z,86566.56
2023-10-12T04:59:50.659Z,86559.69
2023-10-12T05:02:31.818Z,86561.59
2023-10-12T05:05:16.397Z,86565.56
2023-10-12T05:07:55.522Z,86565.50
2023-10-12T05:10:32.783Z,86578.50
2023-10-12T05:13:05.263Z,86577.66
2023-10-12T05:15:42.138Z,86580.88
2023-10-12T05:18:09.227Z,86575.03
2023-10-12T05:20:35.987Z,86580.38
2023-10-12T05:23:05.772Z,86582.28
2023-10-12T05:25:51.100Z,86587.22
2023-10-12T05:28:22.465Z,86584.47
2023-10-12T05:30:56.741Z,86596.91
2023-10-12T05:33:35.755Z,86593.09
2023-10-12T05:36:06.202Z,86591.94
2023-10-12T05:38:38.867Z,86590.06
2023-10-12T05:41:14.822Z,86586.06
2023-10-12T05:43:41.662Z,86588.81
2023-10-12T05:46:15.188Z,86597.47
2023-10-12T05:48:43.637Z,86589.16
2023-10-12T05:51:13.634Z,86589.63
2023-10-12T05:53:40.316Z,86594.19
2023-10-12T05:56:07.737Z,86597.75
2023-10-12T05:58:35.429Z,86598.72
2023-10-12T06:01:09.797Z,86607.53
2023-10-12T06:03:38.024Z,86600.28
2023-10-12T06:06:04.742Z,86598.19
2023-10-12T06:08:31.900Z,86607.31
2023-10-12T06:10:59.787Z,86609.38
2023-10-12T06:13:32.360Z,86613.84
2023-10-12T06:15:59.077Z,86615.00
2023-10-12T06:18:32.129Z,86610.56
2023-10-12T06:21:08.130Z,86609.16
2023-10-12T06:23:40.876Z,86617.91
2023-10-12T06:26:16.201Z,86612.47
2023-10-12T06:28:43.811Z,86613.09
2023-10-12T06:31:10.473Z,86613.09
2023-10-12T06:33:42.934Z,86603.88
2023-10-12T06:36:17.501Z,86600.53
2023-10-12T06:39:02.958Z,86593.41
2023-10-12T06:41:49.808Z,86596.59
2023-10-12T06:44:22.431Z,86590.03
2023-10-12T06:46:50.212Z,86595.00
2023-10-12T06:49:23.624Z,86598.19
2023-10-12T06:51:55.435Z,86600.56
2023-10-12T06:54:32.729Z,86595.91
2023-10-12T06:57:17.809Z,86597.41
2023-10-12T06:59:56.721Z,86598.16
2023-10-12T07:02:26.252Z,86598.88
2023-10-12T07:04:55.936Z,86591.81
2023-10-12T07:07:28.432Z,86602.09
2023-10-12T07:09:57.546Z,86599.22
2023-10-12T07:12:24.980Z,86602.47
2023-10-12T07:14:57.139Z,86602.28
2023-10-12T07:17:32.979Z,86606.16
2023-10-12T07:19:59.859Z,86601.97
2023-10-12T07:22:26.443Z,86602.09
2023-10-12T07:24:58.294Z,86596.66
2023-10-12T07:27:25.319Z,86596.66
2023-10-12T07:30:14.151Z,86594.81
2023-10-12T07:32:42.645Z,86595.66
2023-10-12T07:35:32.883Z,86599.34
2023-10-12T07:37:59.820Z,86595.25
2023-10-12T07:40:27.171Z,86597.63
2023-10-12T07:42:53.769Z,86593.28
2023-10-12T07:45:20.557Z,86602.38
2023-10-12T07:48:07.492Z,86603.50
2023-10-12T07:50:39.015Z,86597.56
2023-10-12T07:53:24.342Z,86600.75
2023-10-12T07:55:56.326Z,86598.13
2023-10-12T07:58:23.172Z,86597.78
2023-10-12T08:01:15.644Z,86594.06
2023-10-12T08:03:51.389Z,86598.31
2023-10-12T08:06:18.490Z,86596.22
2023-10-12T08:08:46.602Z,86592.19
2023-10-12T08:11:33.444Z,86587.25
2023-10-12T08:14:10.810Z,86589.88
2023-10-12T08:16:42.626Z,86590.06
2023-10-12T08:19:29.345Z,86588.06
2023-10-12T08:22:00.298Z,86587.69
2023-10-12T08:24:27.095Z,86586.56
2023-10-12T08:26:59.195Z,86583.84
2023-10-12T08:29:26.164Z,86582.97
2023-10-12T08:32:05.440Z,86583.56
2023-10-12T08:34:34.766Z,86577.63
2023-10-12T08:37:24.576Z,86576.31
2023-10-12T08:39:52.162Z,86579.81
2023-10-12T08:42:34.380Z,86578.75
2023-10-12T08:45:08.547Z,86580.00
2023-10-12T08:47:35.128Z,86577.16
2023-10-12T08:50:02.238Z,86574.97
2023-10-12T08:52:29.563Z,86571.88
2023-10-12T08:55:05.730Z,86577.66
2023-10-12T08:57:46.068Z,86576.81
2023-10-12T09:00:25.069Z,86574.16
2023-10-12T09:03:20.941Z,86573.56
2023-10-12T09:05:55.365Z,86573.75
2023-10-12T09:08:24.967Z,86569.56
2023-10-12T09:10:58.216Z,86572.41
2023-10-12T09:13:26.822Z,86564.94
2023-10-12T09:15:56.954Z,86566.69
2023-10-12T09:18:31.534Z,86561.47
2023-10-12T09:21:01.105Z,86558.09
2023-10-12T09:23:40.988Z,86559.19
2023-10-12T09:26:10.174Z,86557.72
2023-10-12T09:28:56.978Z,86541.41
2023-10-12T09:31:44.012Z,86544.50
2023-10-12T09:34:11.145Z,86542.31
2023-10-12T09:37:07.897Z,86538.31
2023-10-12T09:39:35.755Z,86540.44
2023-10-12T09:42:15.042Z,86540.88
2023-10-12T09:44:41.882Z,86546.16
2023-10-12T09:47:17.179Z,86537.78
2023-10-12T09:49:55.702Z,86536.19
2023-10-12T09:52:26.521Z,86536.25
2023-10-12T09:55:08.352Z,86526.47
2023-10-12T09:57:38.030Z,86527.16
2023-10-12T10:00:20.397Z,86512.69
2023-10-12T10:02:50.576Z,86523.47
2023-10-12T10:05:20.451Z,86511.75
2023-10-12T10:07:56.806Z,86510.69
2023-10-12T10:10:33.217Z,86502.16
2023-10-12T10:13:01.356Z,86505.44
2023-10-12T10:15:45.792Z,86504.81
2023-10-12T10:18:17.590Z,86501.09
2023-10-12T10:20:47.898Z,86498.25
2023-10-12T10:23:21.058Z,86500.56
2023-10-12T10:26:16.366Z,86493.75
2023-10-12T10:28:54.715Z,86495.28
2023-10-12T10:31:33.080Z,86490.00
2023-10-12T10:34:02.551Z,86488.50
2023-10-12T10:36:35.418Z,86487.56
2023-10-12T10:39:10.333Z,86485.47
2023-10-12T10:41:49.095Z,86483.75
2023-10-12T10:44:18.650Z,86477.03
2023-10-12T10:46:46.071Z,86473.47
2023-10-12T10:49:33.105Z,86468.69
2023-10-12T10:52:07.460Z,86473.25
2023-10-12T10:54:34.642Z,86462.88
2023-10-12T10:57:05.974Z,86463.47
2023-10-12T10:59:34.791Z,86462.63
2023-10-12T11:02:01.596Z,86453.72
2023-10-12T11:04:34.006Z,86454.06
2023-10-12T11:07:13.286Z,86455.66
2023-10-12T11:09:49.909Z,86453.81
2023-10-12T11:12:16.508Z,86441.22
2023-10-12T11:14:53.539Z,86448.03
2023-10-12T11:17:21.434Z,86439.38
2023-10-12T11:19:51.103Z,86443.22
2023-10-12T11:22:19.310Z,86442.66
2023-10-12T11:24:54.811Z,86445.44
2023-10-12T11:27:33.935Z,86442.00
2023-10-12T11:30:13.718Z,86446.16
2023-10-12T11:32:54.918Z,86440.75
2023-10-12T11:35:44.510Z,86437.38
2023-10-12T11:38:21.447Z,86440.38
2023-10-12T11:40:53.813Z,86432.00
2023-10-12T11:43:22.699Z,86428.69
2023-10-12T11:46:04.756Z,86429.25
2023-10-12T11:48:32.053Z,86430.16
2023-10-12T11:50:59.192Z,86435.41
2023-10-12T11:53:26.209Z,86435.44
2023-10-12T11:56:09.188Z,86424.38
2023-10-12T11:58:36.131Z,86432.34
2023-10-12T12:01:02.776Z,86425.97
2023-10-12T12:03:30.582Z,86434.22
2023-10-12T12:05:57.235Z,86421.94
2023-10-12T12:08:26.815Z,86421.88
2023-10-12T12:10:56.288Z,86421.72
2023-10-12T12:13:23.057Z,86418.44
2023-10-12T12:15:49.906Z,86417.69
2023-10-12T12:18:21.162Z,86416.59
2023-10-12T12:20:48.865Z,86405.34
2023-10-12T12:23:15.967Z,86407.84
2023-10-12T12:25:43.220Z,86411.72
2023-10-12T12:28:15.640Z,86408.72
2023-10-12T12:31:00.120Z,86402.56
2023-10-12T12:33:27.042Z,86398.81
2023-10-12T12:36:04.807Z,86397.81
2023-10-12T12:38:34.294Z,86400.09
2023-10-12T12:41:01.494Z,86397.63
2023-10-12T12:43:28.396Z,86393.19
2023-10-12T12:45:55.146Z,86390.44
2023-10-12T12:48:21.829Z,86386.94
2023-10-12T12:50:51.022Z,86395.16
2023-10-12T12:53:20.306Z,86385.28
2023-10-12T12:55:47.591Z,86386.34
2023-10-12T12:58:17.433Z,86383.53
2023-10-12T13:00:44.407Z,86382.63
2023-10-12T13:03:13.236Z,86379.03
2023-10-12T13:05:40.002Z,86376.88
2023-10-12T13:08:09.111Z,86382.97
2023-10-12T13:10:36.260Z,86377.72
2023-10-12T13:13:03.249Z,86370.72
2023-10-12T13:15:29.855Z,86373.16
2023-10-12T13:17:57.701Z,86375.94
2023-10-12T13:20:30.440Z,86377.53
2023-10-12T13:22:57.552Z,86372.25
2023-10-12T13:25:27.521Z,86375.22
2023-10-12T13:27:54.375Z,86370.84
2023-10-12T13:30:22.235Z,86364.75
2023-10-12T13:32:50.337Z,86369.63
2023-10-12T13:35:20.094Z,86373.38
2023-10-12T13:37:46.789Z,86369.06
2023-10-12T13:40:16.814Z,86366.09
2023-10-12T13:42:43.969Z,86366.56
2023-10-12T13:45:19.982Z,86369.72
2023-10-12T13:47:49.555Z,86358.63
2023-10-12T13:50:16.565Z,86367.41
2023-10-12T13:52:43.459Z,86366.25
2023-10-12T13:55:13.412Z,86362.97
2023-10-12T13:57:56.838Z,86360.75
2023-10-12T14:00:34.972Z,86361.91
2023-10-12T14:03:12.131Z,86364.81
2023-10-12T14:05:41.695Z,86356.50
2023-10-12T14:08:11.226Z,86353.78
2023-10-12T14:10:45.450Z,86360.59
2023-10-12T14:13:15.286Z,86358.56
2023-10-12T14:15:45.000Z,86361.41
2023-10-12T14:18:12.753Z,86355.28
2023-10-12T14:20:40.494Z,86359.56
2023-10-12T14:23:07.394Z,86363.44
2023-10-12T14:25:39.183Z,86367.78
2023-10-12T14:28:07.342Z,86360.22
2023-10-12T14:30:34.410Z,86360.41
2023-10-12T14:33:04.244Z,86361.38
2023-10-12T14:35:31.273Z,86360.81
2023-10-12T14:37:58.110Z,86362.09
2023-10-12T14:40:32.399Z,86367.03
2023-10-12T14:43:06.882Z,86363.09
2023-10-12T14:45:39.744Z,86365.22
2023-10-12T14:48:17.498Z,86364.63
2023-10-12T14:50:47.275Z,86370.06
2023-10-12T14:53:17.278Z,86364.59
2023-10-12T14:55:45.071Z,86363.19
2023-10-12T14:58:15.185Z,86367.03
2023-10-12T15:00:45.440Z,86373.44
2023-10-12T15:03:12.491Z,86368.78
2023-10-12T15:05:39.125Z,86367.94
2023-10-12T15:08:08.966Z,86364.84
2023-10-12T15:10:42.076Z,86363.41
2023-10-12T15:13:17.903Z,86366.69
2023-10-12T15:15:49.881Z,86365.59
2023-10-12T15:18:17.317Z,86371.75
2023-10-12T15:20:49.936Z,86371.06
2023-10-12T15:23:18.073Z,86377.88
2023-10-12T15:25:45.009Z,86380.03
2023-10-12T15:28:12.880Z,86379.94
2023-10-12T15:30:39.691Z,86383.41
2023-10-12T15:33:06.502Z,86385.31
2023-10-12T15:35:33.239Z,86379.38
2023-10-12T15:37:59.886Z,86390.50
2023-10-12T15:40:27.427Z,86394.69
2023-10-12T15:42:55.029Z,86395.16
2023-10-12T15:45:22.069Z,86395.03
2023-10-12T15:47:49.056Z,86391.28
2023-10-12T15:50:16.028Z,86411.28
2023-10-12T15:52:44.278Z,86405.34
2023-10-12T15:55:13.640Z,86410.19
2023-10-12T15:57:43.837Z,86412.81
2023-10-12T16:00:26.170Z,86414.06
2023-10-12T16:02:56.778Z,86416.06
2023-10-12T16:05:23.983Z,86409.19
2023-10-12T16:07:51.949Z,86406.84
2023-10-12T16:10:19.196Z,86410.16
2023-10-12T16:12:46.578Z,86420.28
2023-10-12T16:15:15.878Z,86418.44
2023-10-12T16:17:43.052Z,86412.97
2023-10-12T16:20:15.876Z,86419.91
2023-10-12T16:22:45.781Z,86410.94
2023-10-12T16:25:13.247Z,86416.97
2023-10-12T16:27:40.390Z,86418.81
2023-10-12T16:30:15.466Z,86419.09
2023-10-12T16:32:45.812Z,86421.66
2023-10-12T16:35:12.670Z,86419.34
2023-10-12T16:37:39.253Z,86423.38
2023-10-12T16:40:10.217Z,86423.91
2023-10-12T16:42:36.892Z,86438.19
2023-10-12T16:45:04.592Z,86429.78
2023-10-12T16:47:33.604Z,86437.16
2023-10-12T16:50:00.329Z,86428.56
2023-10-12T16:52:27.195Z,86433.16
2023-10-12T16:54:53.892Z,86435.97
2023-10-12T16:57:20.616Z,86430.63
2023-10-12T16:59:47.295Z,86434.91
2023-10-12T17:02:14.953Z,86433.06
2023-10-12T17:04:53.330Z,86434.22
2023-10-12T17:07:25.146Z,86436.44
2023-10-12T17:09:52.237Z,86433.19
2023-10-12T17:12:18.881Z,86430.16
2023-10-12T17:14:45.597Z,86431.38
2023-10-12T17:17:13.285Z,86431.19
2023-10-12T17:19:39.935Z,86434.41
2023-10-12T17:22:07.090Z,86427.59
2023-10-12T17:24:34.169Z,86430.22
2023-10-12T17:27:00.744Z,86433.91
2023-10-12T17:29:28.280Z,86432.28
2023-10-12T17:31:55.123Z,86432.31
2023-10-12T17:34:22.014Z,86442.34
2023-10-12T17:36:49.076Z,86434.13
2023-10-12T17:39:29.057Z,86444.22
2023-10-12T17:42:01.329Z,86441.44
2023-10-12T17:44:28.558Z,86435.75
2023-10-12T17:46:55.142Z,86434.59
2023-10-12T17:49:24.768Z,86439.81
2023-10-12T17:51:54.289Z,86437.84
2023-10-12T17:54:21.832Z,86444.13
2023-10-12T17:56:50.282Z,86435.16
2023-10-12T17:59:17.656Z,86441.13
2023-10-12T18:01:48.740Z,86445.69
2023-10-12T18:04:18.447Z,86439.78
2023-10-12T18:06:45.549Z,86432.47
2023-10-12T18:09:17.520Z,86441.22
2023-10-12T18:11:46.942Z,86437.25
2023-10-12T18:14:13.996Z,86440.34
2023-10-12T18:16:40.941Z,86445.72
2023-10-12T18:19:07.757Z,86439.81
2023-10-12T18:21:34.467Z,86443.81
2023-10-12T18:24:03.819Z,86438.00
2023-10-12T18:26:33.484Z,86448.06
2023-10-12T18:29:00.128Z,86445.88
2023-10-12T18:31:27.607Z,86440.75
2023-10-12T18:33:54.380Z,86445.03
2023-10-12T18:36:22.261Z,86448.59
2023-10-12T18:38:49.021Z,86448.09
2023-10-12T18:41:18.825Z,86451.50
2023-10-12T18:43:46.115Z,86457.50
2023-10-12T18:46:14.267Z,86458.19
2023-10-12T18:48:41.159Z,86459.84
2023-10-12T18:51:11.016Z,86463.56
2023-10-12T18:53:43.562Z,86460.81
2023-10-12T18:56:11.579Z,86467.31
2023-10-12T18:58:39.238Z,86469.28
2023-10-12T19:01:07.161Z,86472.06
2023-10-12T19:03:33.916Z,86472.03
2023-10-12T19:06:04.039Z,86467.94
2023-10-12T19:08:31.322Z,86470.03
2023-10-12T19:11:01.323Z,86474.88
2023-10-12T19:13:28.754Z,86470.22
2023-10-12T19:15:55.454Z,86470.34
2023-10-12T19:18:22.873Z,86475.97
2023-10-12T19:20:56.618Z,86473.25
2023-10-12T19:23:25.584Z,86471.78
2023-10-12T19:25:52.996Z,86472.78
2023-10-12T19:28:20.325Z,86475.59
2023-10-12T19:30:47.003Z,86470.22
2023-10-12T19:33:13.665Z,86464.81
2023-10-12T19:35:42.071Z,86473.56
2023-10-12T19:38:08.837Z,86468.88
2023-10-12T19:40:35.536Z,86471.44
2023-10-12T19:43:02.241Z,86470.00
2023-10-12T19:45:31.372Z,86468.25
2023-10-12T19:48:03.515Z,86469.22
2023-10-12T19:50:30.850Z,86470.72
2023-10-12T19:52:57.785Z,86466.88
2023-10-12T19:55:24.459Z,86469.63
2023-10-12T19:57:54.231Z,86467.31
2023-10-12T20:00:31.485Z,86464.69
2023-10-12T20:03:18.019Z,86468.34
2023-10-12T20:05:45.447Z,86465.78
2023-10-12T20:08:12.592Z,86471.75
2023-10-12T20:10:39.260Z,86466.59
2023-10-12T20:13:07.769Z,86462.25
2023-10-12T20:15:37.639Z,86464.66
2023-10-12T20:18:07.557Z,86462.41
2023-10-12T20:20:43.748Z,86465.56
2023-10-12T20:23:10.695Z,86463.47
2023-10-12T20:25:46.587Z,86461.81
2023-10-12T20:28:13.614Z,86463.16
2023-10-12T20:30:40.738Z,86453.28
2023-10-12T20:33:08.346Z,86456.47
2023-10-12T20:35:35.019Z,86455.69
2023-10-12T20:38:01.763Z,86451.97
2023-10-12T20:40:28.465Z,86449.72
2023-10-12T20:42:55.112Z,86454.44
2023-10-12T20:45:21.743Z,86453.59
2023-10-12T20:47:48.333Z,86446.19
2023-10-12T20:50:16.601Z,86453.47
2023-10-12T20:52:43.757Z,86447.88
2023-10-12T20:55:13.369Z,86448.22
2023-10-12T20:57:40.599Z,86447.59
2023-10-12T21:00:10.054Z,86448.69
2023-10-12T21:02:38.334Z,86448.09
2023-10-12T21:05:05.797Z,86447.41
2023-10-12T21:07:32.528Z,86442.91
2023-10-12T21:10:02.335Z,86441.44
2023-10-12T21:12:29.446Z,86435.28
2023-10-12T21:15:01.314Z,86444.34
2023-10-12T21:17:34.548Z,86437.84
2023-10-12T21:20:13.751Z,86437.59
2023-10-12T21:22:40.367Z,86431.91
2023-10-12T21:25:14.445Z,86429.78
2023-10-12T21:27:46.424Z,86442.69
2023-10-12T21:30:14.820Z,86433.69
2023-10-12T21:32:41.532Z,86433.53
2023-10-12T21:35:09.119Z,86433.03
2023-10-12T21:37:36.193Z,86430.72
2023-10-12T21:40:22.246Z,86431.47
2023-10-12T21:42:48.950Z,86432.16
2023-10-12T21:45:16.084Z,86426.03
2023-10-12T21:47:42.977Z,86433.13
2023-10-12T21:50:09.848Z,86432.47
2023-10-12T21:52:36.522Z,86430.22
2023-10-12T21:55:03.538Z,86433.28
2023-10-12T21:57:31.597Z,86432.91
2023-10-12T21:59:58.126Z,86435.16
2023-10-12T22:02:24.914Z,86435.16
2023-10-12T22:04:51.788Z,86425.34
2023-10-12T22:07:18.547Z,86421.03
2023-10-12T22:09:46.069Z,86424.38
2023-10-12T22:12:15.028Z,86425.09
2023-10-12T22:14:52.287Z,86426.09
2023-10-12T22:17:19.511Z,86422.69
2023-10-12T22:19:46.513Z,86423.47
2023-10-12T22:22:13.242Z,86416.75
2023-10-12T22:24:39.925Z,86427.59
2023-10-12T22:27:06.497Z,86423.91
2023-10-12T22:29:33.772Z,86428.16
2023-10-12T22:32:00.506Z,86420.31
2023-10-12T22:34:30.255Z,86434.41
2023-10-12T22:36:56.917Z,86430.97
2023-10-12T22:39:32.987Z,86430.41
2023-10-12T22:41:59.785Z,86435.00
2023-10-12T22:44:26.458Z,86438.97
2023-10-12T22:46:53.140Z,86449.25
2023-10-12T22:49:20.411Z,86440.44
2023-10-12T22:51:50.117Z,86434.81
2023-10-12T22:54:19.815Z,86437.69
2023-10-12T22:56:46.746Z,86430.19
2023-10-12T22:59:13.341Z,86437.25
2023-10-12T23:01:42.682Z,86431.78
2023-10-12T23:04:09.518Z,86430.84
2023-10-12T23:06:36.227Z,86434.56
2023-10-12T23:09:03.993Z,86433.13
2023-10-12T23:11:35.490Z,86430.44
2023-10-12T23:14:02.243Z,86431.72
2023-10-12T23:16:31.861Z,86439.34
2023-10-12T23:19:11.972Z,86434.88
2023-10-12T23:21:45.552Z,86431.09
2023-10-12T23:24:20.851Z,86436.91
2023-10-12T23:26:47.726Z,86431.34
2023-10-12T23:29:14.606Z,86432.47
2023-10-12T23:31:44.263Z,86433.13
2023-10-12T23:34:23.486Z,86430.59
2023-10-12T23:36:54.734Z,86436.41
2023-10-12T23:39:29.135Z,86431.94
2023-10-12T23:41:56.354Z,86428.41
2023-10-12T23:44:25.579Z,86429.69
2023-10-12T23:46:58.455Z,86426.59
2023-10-12T23:49:44.198Z,86425.06
2023-10-12T23:52:11.300Z,86420.78
2023-10-12T23:54:38.093Z,86420.50
2023-10-12T23:57:09.092Z,86422.72
2023-10-12T23:59:35.795Z,86418.78
